createdAt,value
2022-12-13T00:01:56.518Z,18.27
2022-12-13T00:04:25.286Z,17.80
2022-12-13T00:06:54.091Z,17.30
2022-12-13T00:09:24.457Z,16.73
2022-12-13T00:11:58.311Z,17.40
2022-12-13T00:14:25.168Z,18.83
2022-12-13T00:16:52.109Z,18.30
2022-12-13T00:19:19.694Z,17.57
2022-12-13T00:21:46.945Z,16.10
2022-12-13T00:24:14.673Z,18.40
2022-12-13T00:26:41.699Z,18.40
2022-12-13T00:29:08.801Z,17.83
2022-12-13T00:31:58.617Z,18.13
2022-12-13T00:34:23.478Z,18.00
2022-12-13T00:36:51.021Z,17.87
2022-12-13T00:39:19.349Z,17.70
2022-12-13T00:41:47.070Z,17.30
2022-12-13T00:44:14.676Z,16.83
2022-12-13T00:46:42.394Z,16.63
2022-12-13T00:49:11.749Z,16.33
2022-12-13T00:51:39.158Z,19.17
2022-12-13T00:54:06.623Z,17.27
2022-12-13T00:56:34.250Z,16.30
2022-12-13T00:59:01.670Z,17.67
2022-12-13T01:01:32.165Z,17.87
2022-12-13T01:04:01.011Z,17.13
2022-12-13T01:06:29.603Z,18.10
2022-12-13T01:08:56.667Z,17.30
2022-12-13T01:11:23.621Z,16.73
2022-12-13T01:13:53.284Z,16.33
2022-12-13T01:16:22.901Z,17.43
2022-12-13T01:18:49.868Z,17.77
2022-12-13T01:21:18.943Z,17.23
2022-12-13T01:23:45.899Z,18.20
2022-12-13T01:26:19.842Z,17.77
2022-12-13T01:28:47.599Z,17.07
2022-12-13T01:31:18.296Z,18.80
2022-12-13T01:33:45.742Z,18.73
2022-12-13T01:36:16.167Z,17.23
2022-12-13T01:38:43.023Z,15.10
2022-12-13T01:41:17.805Z,17.37
2022-12-13T01:43:48.106Z,17.40
2022-12-13T01:46:17.073Z,18.10
2022-12-13T01:49:04.071Z,18.60
2022-12-13T01:51:44.564Z,17.30
2022-12-13T01:54:20.958Z,17.60
2022-12-13T01:56:53.555Z,17.23
2022-12-13T01:59:28.862Z,17.80
2022-12-13T02:02:01.010Z,18.07
2022-12-13T02:04:44.344Z,17.47
2022-12-13T02:07:22.934Z,18.10
2022-12-13T02:09:56.824Z,17.73
2022-12-13T02:12:30.467Z,17.90
2022-12-13T02:15:11.809Z,18.07
2022-12-13T02:18:11.971Z,17.10
2022-12-13T02:21:07.064Z,18.03
2022-12-13T02:24:11.654Z,18.83
2022-12-13T02:26:44.342Z,18.10
2022-12-13T02:29:30.708Z,18.07
2022-12-13T02:32:35.489Z,17.03
2022-12-13T02:35:26.090Z,17.23
2022-12-13T02:38:29.427Z,18.57
2022-12-13T02:41:13.839Z,16.47
2022-12-13T02:44:12.993Z,18.20
2022-12-13T02:47:05.830Z,17.70
2022-12-13T02:49:43.990Z,18.77
2022-12-13T02:52:12.823Z,18.10
2022-12-13T02:54:42.667Z,16.50
2022-12-13T02:57:31.222Z,17.57
2022-12-13T03:00:07.316Z,17.30
2022-12-13T03:02:52.995Z,17.47
2022-12-13T03:06:12.332Z,18.10
2022-12-13T03:08:47.704Z,16.33
2022-12-13T03:11:17.704Z,17.43
2022-12-13T03:13:54.949Z,19.70
2022-12-13T03:16:28.121Z,17.97
2022-12-13T03:18:59.239Z,16.07
2022-12-13T03:21:26.932Z,18.80
2022-12-13T03:23:54.057Z,16.83
2022-12-13T03:26:27.437Z,16.93
2022-12-13T03:28:57.453Z,18.07
2022-12-13T03:34:43.684Z,17.27
2022-12-13T03:37:40.632Z,17.20
2022-12-13T03:40:16.654Z,16.53
2022-12-13T03:43:00.973Z,17.37
2022-12-13T03:45:35.362Z,16.13
2022-12-13T03:48:14.803Z,16.47
2022-12-13T03:51:04.058Z,17.97
2022-12-13T03:59:40.129Z,17.07
2022-12-13T04:02:31.445Z,17.83
2022-12-13T04:17:01.744Z,16.83
2022-12-13T04:19:35.598Z,15.83
2022-12-13T04:24:53.327Z,15.87
2022-12-13T04:27:20.927Z,15.07
2022-12-13T04:29:47.953Z,16.50
2022-12-13T04:32:26.002Z,16.53
2022-12-13T04:35:00.784Z,16.43
2022-12-13T04:37:29.219Z,16.50
2022-12-13T04:40:00.812Z,17.80
2022-12-13T04:42:28.495Z,16.67
2022-12-13T04:44:55.380Z,16.90
2022-12-13T04:47:23.848Z,17.50
2022-12-13T04:49:51.166Z,16.50
2022-12-13T04:52:22.139Z,17.90
2022-12-13T04:54:56.152Z,17.80
2022-12-13T04:57:23.507Z,18.10
2022-12-13T04:59:50.762Z,16.73
2022-12-13T05:02:23.608Z,18.33
2022-12-13T05:04:54.372Z,18.27
2022-12-13T05:07:22.352Z,18.67
2022-12-13T05:09:51.085Z,19.50
2022-12-13T05:12:22.611Z,18.37
2022-12-13T05:14:51.883Z,18.20
2022-12-13T05:17:21.855Z,18.87
2022-12-13T05:19:48.736Z,17.27
2022-12-13T05:22:19.876Z,17.77
2022-12-13T05:24:47.582Z,20.27
2022-12-13T05:27:24.543Z,17.47
2022-12-13T05:30:03.189Z,18.57
2022-12-13T05:32:42.765Z,18.23
2022-12-13T05:35:13.137Z,19.33
2022-12-13T05:37:40.315Z,16.87
2022-12-13T05:40:11.863Z,18.70
2022-12-13T05:42:39.267Z,18.40
2022-12-13T05:45:08.143Z,19.97
2022-12-13T05:47:34.934Z,20.57
2022-12-13T05:50:01.840Z,19.97
2022-12-13T05:52:31.192Z,18.67
2022-12-13T05:55:00.861Z,18.13
2022-12-13T05:57:28.671Z,18.70
2022-12-13T05:59:55.765Z,18.10
2022-12-13T06:02:23.006Z,19.33
2022-12-13T06:04:50.748Z,19.00
2022-12-13T06:07:17.947Z,17.17
2022-12-13T06:09:44.744Z,18.20
2022-12-13T06:12:31.130Z,18.80
2022-12-13T06:15:01.343Z,17.90
2022-12-13T06:17:36.518Z,17.03
2022-12-13T06:20:23.280Z,18.80
2022-12-13T06:22:53.649Z,17.30
2022-12-13T06:25:30.779Z,20.77
2022-12-13T06:28:00.939Z,19.60
2022-12-13T06:30:29.457Z,18.70
2022-12-13T06:32:57.184Z,17.73
2022-12-13T06:35:29.155Z,20.10
2022-12-13T06:38:01.923Z,20.33
2022-12-13T06:40:32.082Z,21.30
2022-12-13T06:42:58.913Z,20.67
2022-12-13T06:45:26.251Z,23.23
2022-12-13T06:47:53.120Z,20.20
2022-12-13T06:50:22.964Z,18.20
2022-12-13T06:52:49.913Z,27.67
2022-12-13T06:55:23.966Z,19.73
2022-12-13T06:57:51.787Z,18.47
2022-12-13T07:00:22.695Z,16.67
2022-12-13T07:02:55.290Z,18.67
2022-12-13T07:05:22.762Z,17.97
2022-12-13T07:07:49.689Z,16.80
2022-12-13T07:10:22.076Z,17.50
2022-12-13T07:12:49.965Z,17.17
2022-12-13T07:15:16.898Z,15.70
2022-12-13T07:17:43.952Z,17.27
2022-12-13T07:20:11.571Z,18.03
2022-12-13T07:22:46.619Z,17.40
2022-12-13T07:25:26.742Z,18.00
2022-12-13T07:28:01.114Z,17.33
2022-12-13T07:30:28.758Z,18.20
2022-12-13T07:32:55.592Z,16.23
2022-12-13T07:35:22.377Z,17.17
2022-12-13T07:37:51.520Z,16.63
2022-12-13T07:40:18.357Z,16.40
2022-12-13T07:42:56.040Z,17.97
2022-12-13T07:45:24.005Z,18.70
2022-12-13T07:47:53.864Z,17.47
2022-12-13T07:50:24.031Z,18.30
2022-12-13T07:52:52.541Z,17.50
2022-12-13T07:55:23.109Z,18.73
2022-12-13T07:58:18.843Z,19.40
2022-12-13T08:00:46.831Z,18.53
2022-12-13T08:03:25.409Z,19.00
2022-12-13T08:05:59.773Z,18.77
2022-12-13T08:08:31.194Z,17.93
2022-12-13T08:11:17.466Z,17.97
2022-12-13T08:13:44.608Z,19.80
2022-12-13T08:16:26.259Z,18.70
2022-12-13T08:19:01.007Z,17.10
2022-12-13T08:21:54.136Z,19.63
2022-12-13T08:24:22.337Z,19.17
2022-12-13T08:26:51.984Z,19.57
2022-12-13T08:29:23.139Z,17.17
2022-12-13T08:32:05.858Z,18.97
2022-12-13T08:34:32.769Z,19.37
2022-12-13T08:37:01.599Z,18.43
2022-12-13T08:39:36.246Z,18.40
2022-12-13T08:42:18.276Z,19.73
2022-12-13T08:44:53.118Z,21.67
2022-12-13T08:47:24.507Z,18.83
2022-12-13T08:50:04.079Z,18.63
2022-12-13T08:52:42.201Z,19.73
2022-12-13T08:55:12.929Z,19.97
2022-12-13T08:57:41.969Z,20.07
2022-12-13T09:00:12.917Z,19.93
2022-12-13T09:02:40.163Z,18.40
2022-12-13T09:05:08.481Z,21.03
2022-12-13T09:07:36.520Z,19.47
2022-12-13T09:10:07.187Z,21.20
2022-12-13T09:12:53.737Z,17.87
2022-12-13T09:15:29.518Z,19.90
2022-12-13T09:18:04.364Z,19.10
2022-12-13T09:20:40.414Z,20.90
2022-12-13T09:23:14.143Z,18.47
2022-12-13T09:25:56.137Z,20.00
2022-12-13T09:28:34.244Z,18.13
2022-12-13T09:31:01.090Z,18.40
2022-12-13T09:33:30.722Z,18.47
2022-12-13T09:35:57.792Z,17.73
2022-12-13T09:38:24.665Z,19.20
2022-12-13T09:40:58.663Z,19.73
2022-12-13T09:43:32.719Z,18.60
2022-12-13T09:46:13.221Z,17.13
2022-12-13T09:49:01.750Z,17.03
2022-12-13T09:51:43.123Z,17.30
2022-12-13T09:54:20.886Z,18.33
2022-12-13T09:56:54.590Z,18.00
2022-12-13T09:59:35.041Z,26.97
2022-12-13T10:02:29.492Z,18.43
2022-12-13T10:05:33.884Z,18.00
2022-12-13T10:08:14.536Z,17.43
2022-12-13T10:10:43.608Z,16.70
2022-12-13T10:13:22.470Z,17.37
2022-12-13T10:16:06.721Z,18.37
2022-12-13T10:18:36.943Z,17.77
2022-12-13T10:21:22.119Z,17.53
2022-12-13T10:26:38.286Z,18.80
2022-12-13T10:29:06.543Z,18.57
2022-12-13T10:31:47.534Z,16.70
2022-12-13T10:34:26.977Z,17.53
2022-12-13T10:37:09.189Z,17.87
2022-12-13T10:39:43.597Z,21.13
2022-12-13T10:42:23.372Z,17.07
2022-12-13T10:45:43.300Z,15.53
2022-12-13T10:48:39.454Z,16.00
2022-12-13T10:51:12.089Z,15.67
2022-12-13T10:53:55.158Z,15.53
2022-12-13T10:56:32.597Z,15.50
2022-12-13T10:59:18.118Z,15.17
2022-12-13T11:01:45.638Z,15.37
2022-12-13T11:04:33.038Z,15.83
2022-12-13T11:07:20.950Z,17.07
2022-12-13T11:09:52.491Z,20.97
2022-12-13T11:12:27.593Z,15.30
2022-12-13T11:15:00.625Z,15.30
2022-12-13T11:17:31.785Z,17.30
2022-12-13T11:20:02.936Z,14.40
2022-12-13T11:22:34.371Z,14.50
2022-12-13T11:25:23.155Z,14.37
2022-12-13T11:28:26.786Z,14.03
2022-12-13T11:31:14.043Z,12.57
2022-12-13T11:34:14.276Z,12.40
2022-12-13T11:36:59.777Z,11.80
2022-12-13T11:39:33.996Z,12.57
2022-12-13T11:42:18.551Z,11.60
2022-12-13T11:45:01.523Z,11.53
2022-12-13T11:47:39.234Z,12.30
2022-12-13T11:50:33.592Z,11.50
2022-12-13T11:53:21.161Z,12.80
2022-12-13T11:56:02.051Z,11.27
2022-12-13T11:59:02.907Z,13.07
2022-12-13T12:01:43.120Z,11.97
2022-12-13T12:04:32.303Z,13.23
2022-12-13T12:07:31.895Z,11.23
2022-12-13T12:10:06.632Z,11.83
2022-12-13T12:12:36.538Z,10.83
2022-12-13T12:15:27.130Z,11.13
2022-12-13T12:17:56.129Z,10.67
2022-12-13T12:20:37.744Z,11.43
2022-12-13T12:23:28.087Z,11.77
2022-12-13T12:26:05.713Z,10.27
2022-12-13T12:28:51.197Z,11.57
2022-12-13T12:31:51.305Z,16.37
2022-12-13T12:34:46.203Z,10.87
2022-12-13T12:37:25.025Z,9.80
2022-12-13T12:40:13.302Z,9.13
2022-12-13T12:43:14.133Z,10.67
2022-12-13T12:46:00.311Z,9.53
2022-12-13T12:49:26.921Z,20.77
2022-12-13T12:51:55.844Z,9.97
2022-12-13T12:54:35.786Z,14.50
2022-12-13T12:57:25.884Z,11.23
2022-12-13T13:00:16.793Z,9.90
2022-12-13T13:02:50.603Z,9.70
2022-12-13T13:05:40.217Z,10.37
2022-12-13T13:08:18.274Z,9.90
2022-12-13T13:10:49.680Z,13.13
2022-12-13T13:13:47.400Z,11.23
2022-12-13T13:16:35.948Z,10.70
2022-12-13T13:19:31.478Z,10.60
2022-12-13T13:22:01.483Z,9.27
2022-12-13T13:24:30.189Z,10.03
2022-12-13T13:26:59.560Z,9.87
2022-12-13T13:29:31.309Z,9.23
2022-12-13T13:32:28.821Z,9.10
2022-12-13T13:35:28.793Z,8.97
2022-12-13T13:37:57.264Z,8.63
2022-12-13T13:40:36.837Z,9.20
2022-12-13T13:43:12.775Z,8.93
2022-12-13T13:46:11.623Z,9.77
2022-12-13T13:49:04.969Z,11.90
2022-12-13T13:55:01.400Z,10.93
2022-12-13T13:58:08.926Z,12.80
2022-12-13T14:00:53.024Z,11.57
2022-12-13T14:03:57.504Z,10.10
2022-12-13T14:06:45.756Z,10.27
2022-12-13T14:09:33.131Z,8.87
2022-12-13T14:12:33.164Z,8.33
2022-12-13T14:15:20.200Z,8.13
2022-12-13T14:18:14.789Z,7.43
2022-12-13T14:21:07.071Z,10.07
2022-12-13T14:23:41.205Z,10.37
2022-12-13T14:26:29.142Z,10.67
2022-12-13T14:29:01.596Z,9.50
2022-12-13T14:31:43.537Z,8.77
2022-12-13T14:34:31.536Z,8.17
2022-12-13T14:37:03.672Z,9.73
2022-12-13T14:39:34.258Z,8.53
2022-12-13T14:42:26.035Z,8.20
2022-12-13T14:44:53.765Z,8.43
2022-12-13T14:47:22.093Z,8.43
2022-12-13T14:49:55.289Z,8.43
2022-12-13T14:52:26.695Z,9.23
2022-12-13T14:55:00.342Z,9.27
2022-12-13T14:57:29.533Z,9.27
2022-12-13T14:59:58.529Z,9.47
2022-12-13T15:02:32.276Z,10.20
2022-12-13T15:05:02.249Z,12.30
2022-12-13T15:07:37.636Z,17.23
2022-12-13T15:10:20.141Z,22.00
2022-12-13T15:12:48.068Z,23.17
2022-12-13T15:15:22.625Z,24.00
2022-12-13T15:17:51.246Z,21.40
2022-12-13T15:20:33.733Z,22.10
2022-12-13T15:23:11.691Z,18.87
2022-12-13T15:25:40.686Z,17.80
2022-12-13T15:28:10.822Z,18.97
2022-12-13T15:30:39.279Z,18.13
2022-12-13T15:33:33.523Z,17.53
2022-12-13T15:36:14.008Z,16.57
2022-12-13T15:39:01.525Z,18.57
2022-12-13T15:41:28.465Z,18.93
2022-12-13T15:43:59.959Z,19.40
2022-12-13T15:46:44.167Z,19.03
2022-12-13T15:49:41.869Z,15.80
2022-12-13T15:52:14.737Z,17.07
2022-12-13T15:54:42.807Z,15.73
2022-12-13T15:57:22.989Z,17.67
2022-12-13T16:00:04.881Z,17.87
2022-12-13T16:02:31.934Z,18.60
2022-12-13T16:05:10.168Z,20.43
2022-12-13T16:07:40.458Z,19.17
2022-12-13T16:10:08.840Z,18.50
2022-12-13T16:12:47.544Z,18.17
2022-12-13T16:15:29.180Z,18.10
2022-12-13T16:18:15.220Z,16.33
2022-12-13T16:20:44.225Z,15.43
2022-12-13T16:23:11.195Z,17.10
2022-12-13T16:25:53.677Z,16.27
2022-12-13T16:28:25.860Z,16.13
2022-12-13T16:30:53.493Z,16.30
2022-12-13T16:33:28.132Z,18.17
2022-12-13T16:35:56.503Z,15.20
2022-12-13T16:38:26.669Z,18.70
2022-12-13T16:40:56.644Z,18.93
2022-12-13T16:43:33.323Z,16.60
2022-12-13T16:47:10.143Z,18.37
2022-12-13T16:48:51.434Z,18.13
2022-12-13T16:51:18.641Z,17.97
2022-12-13T16:53:48.477Z,18.20
2022-12-13T16:56:21.553Z,17.80
2022-12-13T16:58:50.653Z,19.67
2022-12-13T17:01:33.109Z,19.03
2022-12-13T17:04:00.092Z,17.70
2022-12-13T17:06:27.346Z,17.83
2022-12-13T17:08:54.632Z,18.50
2022-12-13T17:11:22.288Z,17.60
2022-12-13T17:13:49.880Z,17.07
2022-12-13T17:16:16.838Z,17.50
2022-12-13T17:18:46.670Z,18.03
2022-12-13T17:21:15.707Z,16.50
2022-12-13T17:23:57.258Z,17.37
2022-12-13T17:26:24.379Z,17.23
2022-12-13T17:28:54.903Z,17.40
2022-12-13T17:31:22.164Z,16.63
2022-12-13T17:33:49.450Z,16.67
2022-12-13T17:36:17.266Z,16.57
2022-12-13T17:38:45.931Z,16.63
2022-12-13T17:41:14.047Z,16.33
2022-12-13T17:43:42.105Z,14.70
2022-12-13T17:46:15.263Z,15.47
2022-12-13T17:48:42.958Z,16.27
2022-12-13T17:51:13.283Z,17.47
2022-12-13T17:53:43.920Z,18.17
2022-12-13T17:56:13.563Z,18.50
2022-12-13T17:58:42.884Z,17.87
2022-12-13T18:01:21.010Z,18.50
2022-12-13T18:03:51.338Z,18.07
2022-12-13T18:06:18.642Z,18.23
2022-12-13T18:08:46.767Z,19.80
2022-12-13T18:11:33.310Z,19.13
2022-12-13T18:14:02.195Z,17.30
2022-12-13T18:16:36.306Z,18.60
2022-12-13T18:19:06.708Z,19.00
2022-12-13T18:21:34.403Z,18.67
2022-12-13T18:24:01.416Z,18.40
2022-12-13T18:26:28.475Z,18.77
2022-12-13T18:28:55.522Z,17.53
2022-12-13T18:31:24.606Z,18.07
2022-12-13T18:33:53.419Z,18.80
2022-12-13T18:36:23.116Z,17.33
2022-12-13T18:38:50.140Z,17.30
2022-12-13T18:41:24.968Z,17.93
2022-12-13T18:44:01.810Z,17.40
2022-12-13T18:46:30.832Z,17.47
2022-12-13T18:48:58.088Z,17.17
2022-12-13T18:51:25.583Z,18.70
2022-12-13T18:53:52.541Z,17.77
2022-12-13T18:56:22.001Z,17.60
2022-12-13T18:58:49.752Z,17.97
2022-12-13T19:01:17.406Z,16.80
2022-12-13T19:03:46.442Z,16.97
2022-12-13T19:06:22.791Z,16.90
2022-12-13T19:08:54.205Z,16.67
2022-12-13T19:11:21.647Z,17.97
2022-12-13T19:13:49.750Z,16.80
2022-12-13T19:16:23.776Z,18.50
2022-12-13T19:18:53.215Z,19.10
2022-12-13T19:21:21.659Z,16.20
2022-12-13T19:23:56.493Z,17.30
2022-12-13T19:26:25.524Z,17.90
2022-12-13T19:28:52.400Z,18.67
2022-12-13T19:31:24.247Z,18.57
2022-12-13T19:34:02.814Z,17.40
2022-12-13T19:36:31.477Z,17.83
2022-12-13T19:38:58.498Z,18.70
2022-12-13T19:41:26.285Z,18.43
2022-12-13T19:43:54.310Z,18.23
2022-12-13T19:46:21.792Z,18.27
2022-12-13T19:48:48.798Z,19.27
2022-12-13T19:51:15.795Z,19.33
2022-12-13T19:53:42.725Z,18.07
2022-12-13T19:56:11.919Z,21.33
2022-12-13T19:58:39.755Z,19.97
2022-12-13T20:01:07.931Z,21.07
2022-12-13T20:03:36.687Z,19.50
2022-12-13T20:06:05.982Z,19.90
2022-12-13T20:08:33.087Z,20.17
2022-12-13T20:11:05.570Z,20.37
2022-12-13T20:13:32.580Z,20.83
2022-12-13T20:15:59.786Z,20.53
2022-12-13T20:18:26.872Z,19.17
2022-12-13T20:21:13.602Z,18.33
2022-12-13T20:23:49.084Z,20.63
2022-12-13T20:26:20.308Z,19.23
2022-12-13T20:28:47.834Z,19.43
2022-12-13T20:31:21.196Z,17.90
2022-12-13T20:33:48.548Z,18.63
2022-12-13T20:36:26.716Z,18.63
2022-12-13T20:38:56.364Z,19.03
2022-12-13T20:41:25.455Z,18.73
2022-12-13T20:43:54.212Z,18.37
2022-12-13T20:46:23.115Z,18.47
2022-12-13T20:48:51.202Z,19.30
2022-12-13T20:51:20.725Z,18.17
2022-12-13T20:53:50.888Z,19.67
2022-12-13T20:56:23.334Z,19.13
2022-12-13T20:59:16.932Z,19.40
2022-12-13T21:01:48.856Z,17.80
2022-12-13T21:04:16.080Z,16.90
2022-12-13T21:06:43.023Z,17.53
2022-12-13T21:09:11.395Z,18.40
2022-12-13T21:11:39.676Z,19.40
2022-12-13T21:14:23.025Z,18.07
2022-12-13T21:16:51.382Z,18.83
2022-12-13T21:19:33.065Z,17.77
2022-12-13T21:22:02.982Z,16.83
2022-12-13T21:24:30.140Z,17.30
2022-12-13T21:26:57.615Z,17.57
2022-12-13T21:29:24.563Z,17.00
2022-12-13T21:31:52.557Z,17.37
2022-12-13T21:34:20.415Z,18.00
2022-12-13T21:36:49.513Z,17.67
2022-12-13T21:39:24.852Z,17.43
2022-12-13T21:41:52.543Z,18.70
2022-12-13T21:44:19.837Z,17.63
2022-12-13T21:47:11.298Z,17.00
2022-12-13T21:49:33.813Z,17.23
2022-12-13T21:52:00.637Z,17.17
2022-12-13T21:54:27.443Z,16.03
2022-12-13T21:57:13.132Z,25.57
2022-12-13T21:59:40.260Z,19.27
2022-12-13T22:02:16.299Z,18.90
2022-12-13T22:04:44.899Z,17.27
2022-12-13T22:07:24.137Z,18.47
2022-12-13T22:09:52.445Z,16.43
2022-12-13T22:12:19.315Z,17.10
2022-12-13T22:14:46.592Z,17.27
2022-12-13T22:17:13.721Z,18.10
2022-12-13T22:19:40.515Z,17.73
2022-12-13T22:22:07.750Z,16.50
2022-12-13T22:24:34.638Z,16.50
2022-12-13T22:27:01.456Z,15.67
2022-12-13T22:29:28.415Z,16.50
2022-12-13T22:31:55.368Z,16.30
2022-12-13T22:34:22.249Z,16.07
2022-12-13T22:36:50.302Z,15.57
2022-12-13T22:39:19.628Z,16.17
2022-12-13T22:41:47.331Z,16.13
2022-12-13T22:44:15.791Z,16.23
2022-12-13T22:46:42.776Z,16.97
2022-12-13T22:49:10.618Z,16.40
2022-12-13T22:51:38.449Z,15.60
2022-12-13T22:54:05.462Z,17.10
2022-12-13T22:56:32.595Z,15.87
2022-12-13T22:59:04.461Z,15.43
2022-12-13T23:01:34.596Z,16.13
2022-12-13T23:04:01.737Z,15.20
2022-12-13T23:06:31.030Z,15.73
2022-12-13T23:09:00.369Z,15.80
2022-12-13T23:11:47.238Z,15.90
2022-12-13T23:14:17.477Z,14.90
2022-12-13T23:16:44.747Z,15.23
2022-12-13T23:19:40.924Z,13.63
2022-12-13T23:22:01.821Z,15.50
2022-12-13T23:24:28.756Z,15.80
2022-12-13T23:26:55.497Z,16.43
2022-12-13T23:29:22.276Z,15.47
2022-12-13T23:31:49.488Z,14.53
2022-12-13T23:34:16.577Z,14.07
2022-12-13T23:36:43.341Z,14.80
2022-12-13T23:39:11.179Z,14.13
2022-12-13T23:41:38.093Z,14.47
2022-12-13T23:44:05.173Z,14.50
2022-12-13T23:46:35.536Z,14.37
2022-12-13T23:49:04.796Z,14.80
2022-12-13T23:51:32.420Z,14.70
2022-12-13T23:53:59.325Z,15.00
2022-12-13T23:56:26.290Z,14.10
2022-12-13T23:58:53.157Z,13.20
